Time;durP1;ratioP1;P1;durP2;ratioP2;P2;SDS_P1;SDS_P2;PMS_P1;PMS_P2;Temp;Humidity;BMP_temperature;BMP_pressure;BME280_temperature;BME280_humidity;BME280_pressure;Samples;Min_cycle;Max_cycle;Signal;HPM_P1;HPM_P2
2021/04/08 00:00:20;;;;;;;6.30;3.20;;;;;;;1.21;60.23;96922.63;1784697;79;21104;-81
2021/04/08 00:02:49;;;;;;;4.70;2.98;;;;;;;1.18;60.71;96927.95;1784301;80;21145;-80
2021/04/08 00:05:17;;;;;;;6.67;3.65;;;;;;;1.12;60.62;96928.23;1785208;79;21524;-80
2021/04/08 00:07:45;;;;;;;5.25;3.55;;;;;;;1.06;60.27;96933.25;1784159;80;21140;-81
2021/04/08 00:10:14;;;;;;;9.10;4.03;;;;;;;0.99;60.79;96938.33;1784181;80;21566;-83
2021/04/08 00:12:42;;;;;;;6.17;4.40;;;;;;;0.95;60.92;96926.86;1788579;79;21265;-82
2021/04/08 00:15:14;;;;;;;8.30;4.08;;;;;;;0.92;61.33;96931.73;1805186;79;21147;-80
2021/04/08 00:17:44;;;;;;;7.58;4.42;;;;;;;0.85;61.48;96936.34;1804713;79;21147;-80
2021/04/08 00:20:17;;;;;;;6.08;4.33;;;;;;;0.79;61.32;96935.30;1808294;79;21136;-81
2021/04/08 00:22:44;;;;;;;5.65;3.72;;;;;;;0.74;61.74;96934.66;1811363;79;21116;-79
2021/04/08 00:25:13;;;;;;;5.97;3.90;;;;;;;0.68;61.61;96935.77;1810714;79;21152;-80
2021/04/08 00:27:44;;;;;;;7.25;3.77;;;;;;;0.62;61.76;96936.87;1788510;79;21257;-82
2021/04/08 00:30:15;;;;;;;7.08;3.80;;;;;;;0.57;62.01;96944.02;1773827;79;21533;-81
2021/04/08 00:32:42;;;;;;;4.35;3.12;;;;;;;0.53;62.20;96947.64;1816310;79;21688;-81
2021/04/08 00:35:10;;;;;;;6.10;3.63;;;;;;;0.50;62.34;96949.52;1803954;79;21140;-82
2021/04/08 00:37:38;;;;;;;5.33;3.52;;;;;;;0.46;62.37;96947.05;1784261;80;21310;-81
2021/04/08 00:40:13;;;;;;;5.30;3.53;;;;;;;0.44;62.10;96954.52;1783945;80;21179;-80
2021/04/08 00:42:42;;;;;;;5.00;3.20;;;;;;;0.38;62.23;96958.67;1784252;80;21151;-82
2021/04/08 00:45:11;;;;;;;5.00;3.40;;;;;;;0.33;62.34;96957.56;1790957;79;21140;-82
2021/04/08 00:47:38;;;;;;;5.85;3.33;;;;;;;0.29;62.48;96953.39;1794670;79;21271;-81
2021/04/08 00:50:07;;;;;;;5.92;3.50;;;;;;;0.25;62.88;96953.15;1794686;79;21295;-81
2021/04/08 00:52:37;;;;;;;5.12;3.92;;;;;;;0.22;62.40;96953.27;1794279;79;21140;-79
2021/04/08 00:55:06;;;;;;;8.83;3.80;;;;;;;0.22;62.11;96954.56;1794623;79;21266;-81
2021/04/08 00:57:33;;;;;;;5.22;3.35;;;;;;;0.19;62.39;96953.38;1785802;79;21274;-81
2021/04/08 01:00:05;;;;;;;4.53;3.33;;;;;;;0.14;61.91;96950.54;1784389;80;21291;-83
2021/04/08 01:02:31;;;;;;;4.77;3.50;;;;;;;0.07;62.19;96953.43;1784479;79;21250;-80
2021/04/08 01:05:00;;;;;;;4.28;3.30;;;;;;;0.03;62.53;96962.25;1784726;80;21167;-82
2021/04/08 01:07:27;;;;;;;6.30;3.40;;;;;;;0.01;62.90;96963.59;1756496;80;21195;-82
2021/04/08 01:09:55;;;;;;;4.53;3.30;;;;;;;-0.03;62.92;96965.46;1784895;80;21637;-80
2021/04/08 01:12:22;;;;;;;4.90;3.40;;;;;;;-0.03;63.11;96965.46;1784988;80;21270;-80
2021/04/08 01:14:50;;;;;;;4.13;3.07;;;;;;;-0.04;62.96;96975.44;1786476;79;21299;-81
2021/04/08 01:17:28;;;;;;;4.55;3.22;;;;;;;-0.04;62.98;96975.90;1784877;80;21286;-82
2021/04/08 01:20:43;;;;;;;5.67;3.15;;;;;;;-0.02;63.16;96972.80;1777233;80;21172;-81
2021/04/08 01:24:07;;;;;;;4.62;3.02;;;;;;;-0.07;63.21;96969.53;1773277;80;21565;-81
2021/04/08 01:27:13;;;;;;;8.30;3.37;;;;;;;-0.12;63.09;96971.48;1773950;80;21136;-81
2021/04/08 01:30:20;;;;;;;5.45;2.72;;;;;;;-0.19;62.95;96979.94;1773280;80;21140;-80
2021/04/08 01:32:53;;;;;;;8.50;3.47;;;;;;;-0.36;63.16;96985.32;1773031;80;21294;-80
2021/04/08 01:35:28;;;;;;;5.40;3.30;;;;;;;-0.46;63.34;96993.51;1785972;79;21255;-81
2021/04/08 01:38:13;;;;;;;4.67;2.97;;;;;;;-0.52;63.59;97003.64;1804074;79;21196;-79
2021/04/08 01:40:42;;;;;;;3.90;2.60;;;;;;;-0.60;64.47;97013.44;1778397;80;21302;-82
2021/04/08 01:43:11;;;;;;;6.03;3.00;;;;;;;-0.68;64.58;97017.12;1743592;81;21140;-82
2021/04/08 01:45:38;;;;;;;7.80;4.43;;;;;;;-0.76;65.94;97026.92;1773638;81;21255;-79
2021/04/08 01:48:08;;;;;;;6.33;3.57;;;;;;;-0.79;65.11;97021.87;1773399;80;21176;-83
2021/04/08 01:50:36;;;;;;;4.60;3.50;;;;;;;-0.76;65.17;97031.27;1773524;81;21270;-83
2021/04/08 01:53:06;;;;;;;5.27;3.87;;;;;;;-0.77;64.69;97029.58;1773376;81;21546;-81
2021/04/08 01:55:37;;;;;;;5.33;3.87;;;;;;;-0.66;65.22;97030.05;1773410;80;21186;-82
2021/04/08 01:58:05;;;;;;;8.97;3.73;;;;;;;-0.56;64.99;97037.88;1773287;80;21724;-80
2021/04/08 02:00:35;;;;;;;9.17;3.97;;;;;;;-0.52;64.38;97041.19;1785818;79;21154;-82
2021/04/08 02:03:04;;;;;;;7.50;4.13;;;;;;;-0.47;64.68;97039.27;1773082;81;21261;-82
2021/04/08 02:05:33;;;;;;;6.30;3.80;;;;;;;-0.39;64.78;97048.88;1784860;79;21283;-81
2021/04/08 02:08:02;;;;;;;6.53;4.17;;;;;;;-0.35;64.72;97049.61;1775273;80;21550;-82
2021/04/08 02:10:32;;;;;;;9.93;4.40;;;;;;;-0.30;64.67;97054.62;1786447;80;21137;-82
2021/04/08 02:13:02;;;;;;;6.83;4.33;;;;;;;-0.27;64.45;97050.16;1785799;80;21247;-81
2021/04/08 02:15:30;;;;;;;6.23;3.70;;;;;;;-0.24;64.26;97054.41;1789503;79;21251;-82
2021/04/08 02:17:59;;;;;;;6.53;3.77;;;;;;;-0.32;63.68;97056.81;1804155;79;21125;-79
2021/04/08 02:20:31;;;;;;;6.10;4.23;;;;;;;-0.43;63.55;97068.48;1804393;79;21262;-80
2021/04/08 02:23:04;;;;;;;10.93;4.63;;;;;;;-0.55;64.08;97068.02;1804701;79;21499;-79
2021/04/08 02:25:34;;;;;;;7.30;4.17;;;;;;;-0.60;64.40;97070.41;1784983;79;21128;-82
2021/04/08 02:28:06;;;;;;;7.10;3.73;;;;;;;-0.61;64.21;97073.89;1786914;79;21144;-81
2021/04/08 02:30:46;;;;;;;8.37;3.80;;;;;;;-0.64;64.03;97075.69;1775497;79;21549;-81
2021/04/08 02:33:04;;;;;;;4.83;2.37;;;;;;;-0.71;64.19;97081.98;1772001;81;21144;-84
2021/04/08 02:35:32;;;;;;;5.53;3.37;;;;;;;-0.79;64.50;97083.53;1778191;80;21269;-81
2021/04/08 02:37:59;;;;;;;8.83;3.80;;;;;;;-0.90;64.60;97091.28;1783588;79;21198;-82
2021/04/08 02:40:26;;;;;;;6.70;3.90;;;;;;;-0.98;64.86;97094.12;1804720;79;21133;-80
2021/04/08 02:42:54;;;;;;;5.10;3.20;;;;;;;-1.03;65.08;97092.98;1804497;79;21129;-81
2021/04/08 02:45:22;;;;;;;11.57;3.83;;;;;;;-1.04;65.12;97100.34;1804505;79;21294;-81
2021/04/08 02:47:49;;;;;;;6.20;4.10;;;;;;;-0.99;65.34;97097.17;1804229;79;21140;-81
2021/04/08 02:50:16;;;;;;;6.33;3.80;;;;;;;-0.87;65.48;97101.51;1803546;79;21287;-82
2021/04/08 02:53:31;;;;;;;6.33;4.13;;;;;;;-0.85;65.47;97104.47;1772873;81;21172;-81
2021/04/08 02:56:23;;;;;;;8.10;3.70;;;;;;;-0.86;65.53;97105.36;1779267;80;21589;-82
2021/04/08 02:58:55;;;;;;;8.33;4.13;;;;;;;-0.84;65.10;97106.59;1785835;80;21294;-81
2021/04/08 03:01:26;;;;;;;5.40;3.23;;;;;;;-0.86;64.99;97108.38;1785927;79;21243;-81
2021/04/08 03:03:58;;;;;;;11.57;4.70;;;;;;;-0.84;64.97;97107.89;1785684;79;21697;-80
2021/04/08 03:06:27;;;;;;;7.87;3.87;;;;;;;-0.84;65.12;97122.13;1780102;79;22013;-80
2021/04/08 03:08:57;;;;;;;8.27;4.37;;;;;;;-0.90;64.72;97119.75;1772809;80;21105;-80
2021/04/08 03:11:34;;;;;;;6.80;4.70;;;;;;;-0.91;64.78;97123.23;1742473;81;21125;-79
2021/04/08 03:14:09;;;;;;;7.73;3.90;;;;;;;-0.97;64.74;97122.53;1772517;80;21167;-81
2021/04/08 03:16:42;;;;;;;6.37;3.83;;;;;;;-1.03;64.54;97119.33;1772125;80;21128;-78
2021/04/08 03:19:15;;;;;;;10.73;4.73;;;;;;;-1.10;64.44;97119.97;1782424;80;21085;-80
2021/04/08 03:21:44;;;;;;;7.97;4.93;;;;;;;-1.09;64.71;97126.84;1764319;80;21120;-81
2021/04/08 03:24:11;;;;;;;14.27;6.80;;;;;;;-1.08;64.78;97128.96;1761731;80;21144;-79
2021/04/08 03:26:40;;;;;;;10.20;7.60;;;;;;;-1.07;65.04;97135.83;1762101;80;21097;-81
2021/04/08 03:29:08;;;;;;;12.50;8.20;;;;;;;-1.07;65.31;97141.01;1761429;81;21145;-80
2021/04/08 03:31:40;;;;;;;13.57;7.80;;;;;;;-1.11;65.05;97137.67;1761439;81;21263;-80
2021/04/08 03:34:08;;;;;;;14.17;6.47;;;;;;;-1.13;65.01;97144.64;1765684;81;21153;-78
2021/04/08 03:36:38;;;;;;;10.43;5.60;;;;;;;-1.13;65.01;97142.91;1762129;81;21291;-81
2021/04/08 03:39:09;;;;;;;7.07;4.43;;;;;;;-1.13;65.30;97145.93;1763141;80;21315;-81
2021/04/08 03:41:38;;;;;;;7.13;3.90;;;;;;;-1.16;64.96;97151.22;1777487;80;21193;-80
2021/04/08 03:44:09;;;;;;;7.30;3.40;;;;;;;-1.20;64.76;97149.16;1762344;81;21160;-80
2021/04/08 03:46:38;;;;;;;6.87;3.37;;;;;;;-1.26;64.62;97148.07;1773932;80;21271;-81
2021/04/08 03:49:11;;;;;;;4.80;3.20;;;;;;;-1.29;64.48;97149.02;1787366;80;21716;-81
2021/04/08 03:51:40;;;;;;;7.20;3.63;;;;;;;-1.31;64.57;97150.80;1769817;80;21161;-78
2021/04/08 03:54:13;;;;;;;6.63;3.83;;;;;;;-1.37;64.45;97148.42;1760099;79;21239;-80
2021/04/08 03:56:45;;;;;;;6.00;4.47;;;;;;;-1.37;64.41;97153.59;1761790;81;21315;-81
2021/04/08 03:59:14;;;;;;;8.00;4.73;;;;;;;-1.34;65.33;97154.77;1784675;80;21141;-81
2021/04/08 04:01:42;;;;;;;10.00;4.57;;;;;;;-1.35;64.74;97163.45;1792568;79;21170;-80
2021/04/08 04:04:11;;;;;;;10.13;5.70;;;;;;;-1.36;64.60;97165.63;1768388;80;21122;-80
2021/04/08 04:06:42;;;;;;;11.87;5.83;;;;;;;-1.34;64.64;97169.00;1775025;79;21139;-81
2021/04/08 04:09:11;;;;;;;9.57;5.30;;;;;;;-1.35;64.72;97164.74;1762408;81;21178;-81
2021/04/08 04:11:42;;;;;;;10.90;5.57;;;;;;;-1.33;64.63;97169.39;1762793;81;21273;-81
2021/04/08 04:14:16;;;;;;;12.83;6.00;;;;;;;-1.32;65.13;97172.39;1766515;80;21164;-81
2021/04/08 04:16:45;;;;;;;9.97;6.40;;;;;;;-1.30;64.82;97172.36;1763357;81;21283;-82
2021/04/08 04:19:13;;;;;;;12.07;6.73;;;;;;;-1.30;64.86;97168.48;1763673;81;21255;-81
2021/04/08 04:21:42;;;;;;;16.23;6.77;;;;;;;-1.24;64.88;97170.86;1770596;81;21274;-82
2021/04/08 04:24:09;;;;;;;15.70;6.53;;;;;;;-1.21;64.88;97173.36;1774555;80;21128;-83
2021/04/08 04:26:37;;;;;;;13.13;6.73;;;;;;;-1.23;64.85;97171.69;1774832;81;21137;-85
2021/04/08 04:29:12;;;;;;;11.77;7.70;;;;;;;-1.24;64.85;97170.00;1775059;80;21259;-84
2021/04/08 04:31:40;;;;;;;11.43;6.80;;;;;;;-1.19;65.35;97173.30;1774716;78;21101;-83
2021/04/08 04:34:09;;;;;;;10.10;6.33;;;;;;;-1.16;64.80;97176.62;1774784;80;21155;-83
2021/04/08 04:36:39;;;;;;;18.57;6.93;;;;;;;-1.14;64.72;97179.16;1774784;80;21263;-84
2021/04/08 04:39:07;;;;;;;15.93;8.43;;;;;;;-1.10;64.43;97175.59;1774672;80;21308;-84
2021/04/08 04:41:38;;;;;;;11.60;6.43;;;;;;;-1.08;65.21;97178.12;1774683;80;21252;-86
2021/04/08 04:44:06;;;;;;;11.47;5.83;;;;;;;-1.05;65.09;97180.16;1774877;80;21268;-83
2021/04/08 04:46:35;;;;;;;14.80;6.53;;;;;;;-0.99;64.71;97176.09;1774763;81;21240;-83
2021/04/08 04:49:06;;;;;;;11.37;6.07;;;;;;;-0.89;64.63;97181.80;1745782;81;21275;-84
2021/04/08 04:51:33;;;;;;;8.83;6.47;;;;;;;-0.63;64.61;97186.55;1774694;80;21243;-84
2021/04/08 04:54:00;;;;;;;13.33;6.13;;;;;;;-0.34;64.12;97180.39;1745035;81;21140;-84
2021/04/08 04:56:29;;;;;;;12.97;7.03;;;;;;;-0.02;63.90;97188.74;1774135;81;21148;-83
2021/04/08 04:58:57;;;;;;;13.63;7.50;;;;;;;0.48;63.18;97191.25;1774393;80;21184;-82
2021/04/08 05:01:24;;;;;;;12.20;7.40;;;;;;;1.09;62.38;97189.28;1774374;80;21174;-83
2021/04/08 05:03:51;;;;;;;11.12;7.37;;;;;;;1.78;61.84;97191.19;1774211;80;21247;-83
2021/04/08 05:06:21;;;;;;;57.95;33.53;;;;;;;2.45;60.30;97192.56;1774112;81;21142;-84
2021/04/08 05:08:48;;;;;;;13.10;7.67;;;;;;;3.19;58.90;97197.80;1774091;80;21148;-83
2021/04/08 05:11:15;;;;;;;18.77;8.68;;;;;;;3.94;57.33;97193.61;1774235;80;21187;-82
2021/04/08 05:13:42;;;;;;;33.75;19.95;;;;;;;4.54;55.01;97203.48;1774066;80;21136;-83
2021/04/08 05:16:11;;;;;;;27.93;17.50;;;;;;;5.04;53.48;97202.09;1774364;80;21681;-83
2021/04/08 05:18:39;;;;;;;17.85;8.63;;;;;;;5.60;53.26;97202.38;1774375;80;21105;-82
2021/04/08 05:21:07;;;;;;;11.65;7.85;;;;;;;6.02;47.02;97203.42;1774041;80;21326;-83
2021/04/08 05:23:36;;;;;;;15.65;8.33;;;;;;;6.23;49.03;97197.34;1774354;81;21109;-83
2021/04/08 05:26:04;;;;;;;14.03;6.90;;;;;;;6.63;48.68;97201.06;1774274;80;21133;-81
2021/04/08 05:28:32;;;;;;;13.53;7.37;;;;;;;6.97;51.23;97201.05;1774354;80;21119;-83
2021/04/08 05:30:59;;;;;;;16.87;6.97;;;;;;;7.08;49.60;97206.94;1774368;81;21151;-83
2021/04/08 05:33:26;;;;;;;10.95;6.65;;;;;;;7.35;47.91;97206.08;1774295;81;21321;-81
2021/04/08 05:35:54;;;;;;;12.82;6.83;;;;;;;7.75;48.90;97212.60;1774417;81;21184;-84
2021/04/08 05:38:21;;;;;;;15.30;6.90;;;;;;;8.36;46.69;97205.89;1774181;80;21148;-79
2021/04/08 05:40:49;;;;;;;17.35;7.05;;;;;;;8.36;46.69;97205.89;1774234;80;21129;-82
2021/04/08 05:43:17;;;;;;;13.80;6.95;;;;;;;8.79;45.52;97208.63;1774314;81;21160;-83
2021/04/08 05:45:48;;;;;;;11.33;6.72;;;;;;;9.01;43.71;97210.56;1774160;81;21185;-81
2021/04/08 05:48:17;;;;;;;15.80;7.70;;;;;;;9.35;43.79;97217.33;1774073;80;21172;-81
2021/04/08 05:50:44;;;;;;;14.53;7.33;;;;;;;9.73;41.25;97224.18;1773906;80;21740;-82
2021/04/08 05:53:19;;;;;;;21.57;6.95;;;;;;;10.21;40.78;97219.73;1773957;81;21279;-85
2021/04/08 05:55:53;;;;;;;12.90;7.90;;;;;;;10.58;41.78;97216.91;1773900;80;21153;-83
2021/04/08 05:58:20;;;;;;;14.95;7.37;;;;;;;11.16;39.27;97219.34;1774047;81;21267;-81
2021/04/08 06:00:48;;;;;;;12.82;7.33;;;;;;;11.53;37.57;97218.98;1774140;80;21259;-81
2021/04/08 06:03:15;;;;;;;14.95;6.70;;;;;;;12.05;36.20;97222.71;1773766;80;21263;-84
2021/04/08 06:05:44;;;;;;;14.78;7.75;;;;;;;12.25;36.79;97224.98;1773685;80;21168;-85
2021/04/08 06:08:11;;;;;;;10.63;7.17;;;;;;;12.27;35.71;97219.08;1773529;80;21132;-85
2021/04/08 06:10:38;;;;;;;13.03;6.47;;;;;;;12.59;35.89;97228.68;1772648;80;21160;-80
2021/04/08 06:13:07;;;;;;;7.58;5.90;;;;;;;12.63;34.75;97226.95;1772883;81;21242;-83
2021/04/08 06:15:34;;;;;;;10.50;6.35;;;;;;;12.86;34.48;97232.53;1772343;80;21700;-81
2021/04/08 06:18:03;;;;;;;18.87;6.25;;;;;;;13.17;34.06;97235.98;1772330;81;21247;-83
2021/04/08 06:20:31;;;;;;;12.98;5.83;;;;;;;13.35;34.44;97237.47;1772545;80;21270;-84
2021/04/08 06:23:00;;;;;;;9.60;5.33;;;;;;;13.57;32.66;97243.52;1760857;81;21153;-85
2021/04/08 06:25:28;;;;;;;13.48;5.62;;;;;;;13.75;32.73;97241.00;1761316;81;21152;-83
2021/04/08 06:27:55;;;;;;;10.35;6.22;;;;;;;13.95;33.47;97242.31;1761357;81;21126;-85
2021/04/08 06:30:25;;;;;;;5.50;4.15;;;;;;;14.15;32.86;97244.47;1760888;81;21547;-86
2021/04/08 06:32:52;;;;;;;6.67;4.22;;;;;;;14.30;32.88;97237.73;1760749;81;21282;-80
2021/04/08 06:35:22;;;;;;;11.45;4.22;;;;;;;14.24;32.15;97237.46;1760743;81;21599;-87
2021/04/08 06:37:51;;;;;;;5.35;3.70;;;;;;;14.21;32.56;97235.94;1760568;81;21594;-84
2021/04/08 06:40:21;;;;;;;6.83;3.30;;;;;;;14.27;31.22;97235.86;1761042;81;21310;-82
2021/04/08 06:42:54;;;;;;;4.40;2.95;;;;;;;14.39;30.08;97236.02;1760876;81;21125;-86
2021/04/08 06:45:25;;;;;;;7.42;3.25;;;;;;;14.65;28.69;97238.05;1760722;81;21761;-86
2021/04/08 06:48:07;;;;;;;7.60;3.12;;;;;;;14.85;28.54;97242.80;1760810;81;21105;-89
2021/04/08 06:50:42;;;;;;;5.17;3.05;;;;;;;15.10;29.86;97239.97;1760684;81;21712;-86
2021/04/08 06:53:09;;;;;;;3.95;2.98;;;;;;;15.16;27.93;97242.52;1760577;81;21251;-86
2021/04/08 06:55:36;;;;;;;7.92;2.70;;;;;;;15.20;29.10;97235.91;1760417;81;21310;-86
2021/04/08 06:58:06;;;;;;;4.42;2.92;;;;;;;15.37;27.34;97236.94;1760359;81;21280;-88
2021/04/08 07:00:35;;;;;;;6.62;3.47;;;;;;;15.41;27.69;97244.11;1760409;81;21130;-82
2021/04/08 07:03:05;;;;;;;8.30;3.42;;;;;;;15.41;26.92;97246.25;1760297;81;21717;-87
2021/04/08 07:05:32;;;;;;;5.25;2.70;;;;;;;15.47;26.91;97250.13;1760622;81;21131;-85
2021/04/08 07:08:00;;;;;;;6.15;2.92;;;;;;;15.58;26.15;97251.25;1760275;81;21145;-87
2021/04/08 07:10:27;;;;;;;7.80;3.67;;;;;;;15.55;26.37;97254.20;1760194;81;21581;-86
2021/04/08 07:12:56;;;;;;;3.35;2.42;;;;;;;15.37;26.85;97257.33;1760332;81;21678;-86
2021/04/08 07:15:24;;;;;;;7.83;2.52;;;;;;;15.48;25.33;97260.28;1760324;81;21180;-86
2021/04/08 07:17:52;;;;;;;3.70;2.30;;;;;;;15.42;23.99;97260.38;1760182;81;21282;-86
2021/04/08 07:20:20;;;;;;;3.55;2.30;;;;;;;15.49;25.44;97264.11;1760204;81;21287;-86
2021/04/08 07:22:47;;;;;;;4.83;2.37;;;;;;;15.57;24.92;97262.86;1768595;81;21202;-84
2021/04/08 07:25:21;;;;;;;3.72;2.02;;;;;;;15.74;25.49;97266.99;1770847;80;21617;-87
2021/04/08 07:27:48;;;;;;;6.10;2.30;;;;;;;15.66;25.52;97264.27;1771230;80;21136;-87
2021/04/08 07:30:21;;;;;;;4.78;2.40;;;;;;;15.53;24.18;97267.30;1770936;80;21192;-85
2021/04/08 07:33:00;;;;;;;5.58;2.62;;;;;;;15.45;24.35;97268.06;1741298;81;21600;-86
2021/04/08 07:35:40;;;;;;;5.20;2.72;;;;;;;15.46;24.98;97268.38;1771431;81;21148;-85
2021/04/08 07:38:08;;;;;;;4.85;2.67;;;;;;;15.52;25.54;97274.44;1771687;81;21208;-87
2021/04/08 07:40:36;;;;;;;6.85;2.62;;;;;;;15.42;23.63;97273.66;1771129;81;21153;-87
2021/04/08 07:43:14;;;;;;;11.43;2.70;;;;;;;15.45;24.41;97276.03;1770927;80;21157;-82
2021/04/08 07:45:41;;;;;;;3.45;2.20;;;;;;;15.39;24.37;97276.61;1771248;80;21148;-87
2021/04/08 07:48:10;;;;;;;4.80;2.30;;;;;;;15.42;25.02;97282.45;1770908;80;21156;-86
2021/04/08 07:50:41;;;;;;;4.78;2.00;;;;;;;15.42;24.84;97282.96;1771058;80;21172;-85
2021/04/08 07:53:17;;;;;;;4.62;2.20;;;;;;;15.06;24.04;97292.17;1771108;80;21148;-86
2021/04/08 07:55:45;;;;;;;3.92;2.58;;;;;;;14.51;23.78;97280.47;1766405;81;21156;-84
2021/04/08 07:58:16;;;;;;;3.52;1.98;;;;;;;13.82;23.65;97283.67;1771493;80;21148;-86
2021/04/08 08:00:52;;;;;;;5.72;2.55;;;;;;;13.26;24.20;97288.11;1771467;81;21156;-85
2021/04/08 08:03:26;;;;;;;3.22;2.00;;;;;;;13.02;24.86;97296.86;1771869;80;21145;-85
2021/04/08 08:05:59;;;;;;;4.20;2.15;;;;;;;12.53;24.30;97288.71;1771004;81;21152;-87
2021/04/08 08:08:41;;;;;;;6.97;2.80;;;;;;;12.11;24.78;97299.63;1772558;80;21732;-87
2021/04/08 08:11:14;;;;;;;4.87;2.42;;;;;;;12.08;25.93;97299.91;1771891;80;21120;-88
2021/04/08 08:13:51;;;;;;;5.65;3.05;;;;;;;11.92;25.88;97295.52;1772439;80;21137;-83
2021/04/08 08:16:24;;;;;;;5.42;3.00;;;;;;;12.01;26.54;97297.43;1773319;81;21167;-84
2021/04/08 08:18:52;;;;;;;2.72;2.08;;;;;;;12.15;26.52;97296.28;1773951;81;21255;-86
2021/04/08 08:21:38;;;;;;;3.47;2.58;;;;;;;12.01;25.45;97304.86;1772872;80;21181;-85
2021/04/08 08:24:12;;;;;;;10.00;2.47;;;;;;;11.22;26.27;97309.03;1794045;78;21235;-88
2021/04/08 08:26:42;;;;;;;2.80;1.72;;;;;;;10.75;26.44;97313.11;1821412;79;21235;-87
2021/04/08 08:29:27;;;;;;;4.00;1.72;;;;;;;10.30;26.53;97316.02;1822059;78;21121;-85
2021/04/08 08:32:07;;;;;;;4.22;1.75;;;;;;;10.20;26.04;97320.79;1830408;78;21208;-85
2021/04/08 08:37:20;;;;;;;8.93;1.70;;;;;;;10.16;25.42;97324.14;1823791;77;23144;-81
2021/04/08 08:39:49;;;;;;;7.53;1.90;;;;;;;10.06;25.24;97320.02;1823392;78;21184;-81
2021/04/08 08:42:21;;;;;;;2.05;1.40;;;;;;;10.28;25.09;97327.14;1827714;78;21562;-82
2021/04/08 08:44:49;;;;;;;2.35;1.40;;;;;;;10.37;26.53;97327.40;1797787;78;21136;-82
2021/04/08 08:47:22;;;;;;;2.50;1.50;;;;;;;10.44;26.35;97336.58;1827884;78;21171;-82
2021/04/08 08:50:06;;;;;;;1.95;1.27;;;;;;;10.35;25.73;97339.88;1827620;78;21596;-82
2021/04/08 08:52:38;;;;;;;2.60;1.72;;;;;;;10.23;25.85;97343.79;1827530;78;21586;-83
2021/04/08 08:55:14;;;;;;;5.58;1.50;;;;;;;9.60;26.08;97333.48;1829194;78;21293;-84
2021/04/08 08:57:46;;;;;;;2.75;1.40;;;;;;;9.31;26.41;97338.19;1829346;78;21144;-84
2021/04/08 09:00:16;;;;;;;8.25;1.60;;;;;;;8.84;25.69;97339.27;1830209;78;21258;-83
2021/04/08 09:02:45;;;;;;;4.08;2.00;;;;;;;8.53;27.20;97338.75;1828480;78;21269;-84
2021/04/08 09:05:17;;;;;;;5.58;1.55;;;;;;;8.31;26.50;97334.91;1830275;78;21231;-85
2021/04/08 09:07:52;;;;;;;5.10;1.92;;;;;;;7.45;25.19;97331.74;1822915;78;21117;-82
2021/04/08 09:10:31;;;;;;;3.62;2.00;;;;;;;7.45;25.19;97331.74;1792001;78;21150;-78
2021/04/08 09:12:58;;;;;;;3.07;1.93;;;;;;;7.43;25.96;97332.30;1796671;80;21624;-79
2021/04/08 09:15:26;;;;;;;3.10;1.55;;;;;;;7.43;25.96;97332.30;1816187;78;21824;-79
2021/04/08 09:17:59;;;;;;;3.47;1.70;;;;;;;7.24;26.12;97347.03;1829070;78;21166;-79
2021/04/08 09:20:28;;;;;;;4.40;1.57;;;;;;;7.11;26.81;97350.89;1829065;78;21127;-79
2021/04/08 09:23:01;;;;;;;4.03;2.10;;;;;;;7.19;27.59;97338.14;1828644;78;21136;-79
2021/04/08 09:25:37;;;;;;;2.87;1.75;;;;;;;7.19;27.59;97338.14;1828931;78;21136;-78
2021/04/08 09:28:09;;;;;;;3.02;1.95;;;;;;;7.25;27.20;97353.97;1829130;78;21138;-79
2021/04/08 09:33:48;;;;;;;2.55;1.40;;;;;;;7.15;27.72;97347.16;1790717;78;21696;-78
2021/04/08 09:36:27;;;;;;;3.90;1.72;;;;;;;7.14;27.17;97358.58;1798011;78;21189;-78
2021/04/08 09:39:02;;;;;;;3.77;1.45;;;;;;;7.17;26.25;97358.40;1796184;79;22302;-78
2021/04/08 09:41:44;;;;;;;2.40;1.72;;;;;;;7.38;27.16;97352.72;1790955;80;21142;-77
2021/04/08 09:44:14;;;;;;;3.98;1.65;;;;;;;7.61;26.46;97352.56;1796550;79;21123;-78
2021/04/08 09:46:53;;;;;;;3.67;1.40;;;;;;;7.89;26.88;97347.33;1823039;78;21099;-78
2021/04/08 09:49:46;;;;;;;3.08;1.47;;;;;;;7.89;26.88;97347.33;1806035;78;21580;-77
2021/04/08 09:52:15;;;;;;;1.80;1.20;;;;;;;8.21;26.60;97343.89;1811293;78;21264;-78
2021/04/08 09:54:56;;;;;;;3.60;1.30;;;;;;;8.47;26.39;97345.71;1828173;78;21289;-79
2021/04/08 09:57:39;;;;;;;2.83;1.30;;;;;;;8.50;23.43;97349.45;1828445;78;21119;-78
2021/04/08 10:00:15;;;;;;;4.53;1.17;;;;;;;8.32;23.84;97347.58;1814883;78;21241;-78
2021/04/08 10:03:06;;;;;;;1.87;1.22;;;;;;;8.25;24.22;97361.59;1759923;80;21572;-78
2021/04/08 10:05:42;;;;;;;3.25;1.42;;;;;;;7.84;23.17;97362.06;1753608;81;21565;-78
2021/04/08 10:08:10;;;;;;;2.77;1.20;;;;;;;7.84;23.17;97362.06;1743036;80;21219;-79
2021/04/08 10:10:42;;;;;;;2.65;0.93;;;;;;;7.73;24.08;97358.83;1758708;81;21159;-78
2021/04/08 10:13:25;;;;;;;1.52;1.10;;;;;;;7.45;22.73;97350.55;1759204;80;21163;-79
2021/04/08 10:15:59;;;;;;;2.55;0.90;;;;;;;7.27;24.13;97360.45;1758866;81;21142;-78
2021/04/08 10:18:31;;;;;;;2.37;1.50;;;;;;;7.27;24.13;97360.45;1755562;81;21318;-79
2021/04/08 10:21:03;;;;;;;4.03;1.70;;;;;;;7.32;25.00;97367.54;1764205;81;21289;-78
2021/04/08 10:23:44;;;;;;;1.67;1.20;;;;;;;7.42;24.32;97366.02;1772067;81;21175;-78
2021/04/08 10:26:25;;;;;;;5.92;1.50;;;;;;;7.57;25.61;97361.59;1766060;81;21204;-78
2021/04/08 10:28:57;;;;;;;4.62;1.50;;;;;;;7.91;25.80;97365.13;1742579;82;21756;-78
2021/04/08 10:31:55;;;;;;;6.75;1.72;;;;;;;8.24;25.87;97366.47;1742230;82;21172;-78
2021/04/08 10:34:27;;;;;;;3.62;1.52;;;;;;;8.44;25.41;97375.17;1740976;82;21124;-77
2021/04/08 10:36:57;;;;;;;3.02;1.45;;;;;;;8.65;26.16;97376.48;1764210;81;21175;-78
2021/04/08 10:39:33;;;;;;;2.25;1.57;;;;;;;8.70;26.06;97372.59;1739037;81;21169;-78
2021/04/08 10:42:10;;;;;;;3.00;1.70;;;;;;;8.73;25.83;97372.39;1709923;84;21189;-77
2021/04/08 10:44:42;;;;;;;5.30;2.05;;;;;;;8.69;25.95;97377.48;1710379;83;21585;-78
2021/04/08 10:47:16;;;;;;;2.55;1.50;;;;;;;8.64;25.33;97381.36;1710415;84;21145;-78
2021/04/08 10:49:54;;;;;;;1.22;1.00;;;;;;;8.67;26.23;97372.83;1718799;82;21156;-79
2021/04/08 10:52:30;;;;;;;2.65;1.40;;;;;;;8.88;25.77;97376.22;1727932;82;21164;-78
2021/04/08 10:55:01;;;;;;;3.67;1.90;;;;;;;8.70;25.64;97385.73;1732815;83;21141;-78
2021/04/08 10:57:29;;;;;;;1.85;1.37;;;;;;;8.79;26.10;97388.67;1740439;81;21159;-79
2021/04/08 10:59:58;;;;;;;3.40;2.08;;;;;;;8.86;25.42;97385.53;1738646;82;21143;-79
2021/04/08 11:02:36;;;;;;;2.50;1.50;;;;;;;8.94;25.83;97382.84;1738663;82;21160;-78
2021/04/08 11:05:20;;;;;;;2.40;1.67;;;;;;;9.02;25.84;97389.72;1739013;82;21604;-80
2021/04/08 11:07:52;;;;;;;5.72;1.70;;;;;;;9.14;25.82;97382.80;1737511;82;21177;-79
2021/04/08 11:10:24;;;;;;;1.77;1.42;;;;;;;9.36;25.97;97380.80;1732430;83;21178;-78
2021/04/08 11:12:54;;;;;;;3.40;1.37;;;;;;;9.53;26.35;97377.81;1736873;82;21107;-79
2021/04/08 11:15:29;;;;;;;4.47;1.60;;;;;;;9.75;26.50;97381.51;1741543;82;21154;-79
2021/04/08 11:18:07;;;;;;;5.75;1.35;;;;;;;9.91;26.28;97377.29;1741731;81;21341;-78
2021/04/08 11:20:44;;;;;;;2.40;1.40;;;;;;;10.10;25.52;97376.80;1738862;82;21605;-79
2021/04/08 11:23:18;;;;;;;4.75;1.90;;;;;;;10.24;25.17;97376.23;1740171;81;22236;-79
2021/04/08 11:26:01;;;;;;;2.10;1.45;;;;;;;10.30;25.09;97371.84;1769121;80;21127;-78
2021/04/08 11:28:29;;;;;;;2.42;1.50;;;;;;;10.20;25.46;97386.16;1778104;80;21597;-78
2021/04/08 11:30:56;;;;;;;5.50;2.10;;;;;;;10.16;25.67;97393.45;1785871;80;21163;-79
2021/04/08 11:33:25;;;;;;;2.55;1.60;;;;;;;10.16;26.19;97387.36;1770210;80;21148;-78
2021/04/08 11:35:53;;;;;;;6.65;2.30;;;;;;;10.23;25.93;97391.20;1777588;80;21160;-80
2021/04/08 11:38:24;;;;;;;3.02;1.90;;;;;;;10.00;26.28;97393.73;1762586;80;21624;-78
2021/04/08 11:41:03;;;;;;;7.03;1.90;;;;;;;9.83;26.84;97398.08;1736591;82;21565;-79
2021/04/08 11:43:46;;;;;;;3.62;2.10;;;;;;;9.75;27.44;97402.56;1737357;82;21144;-78
2021/04/08 11:46:35;;;;;;;7.33;2.15;;;;;;;9.86;27.46;97400.50;1734407;82;21178;-78
2021/04/08 11:49:19;;;;;;;3.75;1.80;;;;;;;9.87;27.46;97388.16;1724274;82;21172;-78
2021/04/08 11:51:48;;;;;;;4.47;1.72;;;;;;;9.80;27.70;97395.20;1735393;82;21124;-78
2021/04/08 11:54:17;;;;;;;6.22;1.67;;;;;;;9.77;27.73;97383.56;1736852;82;21139;-79
2021/04/08 11:56:45;;;;;;;7.92;1.75;;;;;;;9.76;27.05;97378.41;1698659;82;21179;-79
2021/04/08 11:59:22;;;;;;;3.15;1.57;;;;;;;9.73;25.87;97384.75;1739427;82;21151;-79
2021/04/08 12:01:53;;;;;;;2.77;1.80;;;;;;;9.82;26.76;97375.33;1736821;82;21136;-79